Terminal Aerodrome Forecast
Issued by NWS

Home | Current Version | Previous Version | Text Only | Print | Product List | Glossary On
Versions: 1 2 3 4 5 6 7 8 9 10 11 12 13 14 15 16 17 18 19 20 21 22 23 24 25
000
FTUS46 KLOX 292340
TAFOXR
TAF
KOXR 292340Z 3000/3024 26010KT P6SM FEW009
     FM300200 26006KT P6SM BKN008
     FM300600 VRB03KT 4SM BR OVC005
     FM301500 VRB03KT 5SM BR OVC007
     FM301800 24007KT 6SM HZ OVC010
     FM302200 25010KT P6SM SCT012=

USA.gov is the U.S. government's official web portal to all federal, state and local government web resources and services.